»·PEaware :: N47DT KSNA-kbur

N47DT :: KSNA-kbur

FLIGHT INFORMATION

Flight Status: Arrived
Operator: Privately registered:
United States
More flights under this callsign
Pilot: Wayne C. (13792)
Aircraft: CESSNA 172 SKYHAWK
(C172)
More flights by this aircraft type
Origin: KSNA John Wayne-Orange Co
United States
Destination: kbur Bob Hope-Burbank
United States
More flights between these airports :: More routes between these airports
Route: +SLI V23 POPPR SMO125 SMO SMO311 SILEX
File this flight plan on PilotEdge
Remarks: I-3
Altitude:
(Current/Filed)
4,000ft
Speed:
(Current/Filed)
105kts
Departed: 04-Jul-17 04:19 PM
Arrived: 04-Jul-17 04:57 PM
Distance/Time
Traveled:
40nm/0:37
Distance/Time
To Go:
Arrived

Flight Plot

Page will automatically refresh every two minutes.


Map Options




Map Legend


Flown Route
Filed Route
Departure Airport
Arrival Airport
Navaid (VOR, NDB)
Fix

Horizontal Profiles

Position Reports

Time Latitude Longitude Heading Altitude Ground
Speed
04-Jul-17 16:01 33.671587 -117.867678 207 60ft 0kts
04-Jul-17 16:02 33.671587 -117.867678 207 60ft 0kts
04-Jul-17 16:03 33.671587 -117.867678 207 60ft 0kts
04-Jul-17 16:04 33.671587 -117.867678 207 60ft 0kts
04-Jul-17 16:05 33.671587 -117.867678 207 60ft 0kts
04-Jul-17 16:06 33.671587 -117.867678 207 60ft 0kts
04-Jul-17 16:07 33.671587 -117.867678 207 60ft 0kts
04-Jul-17 16:08 33.671587 -117.867678 207 60ft 0kts
04-Jul-17 16:09 33.671587 -117.867678 207 60ft 0kts
04-Jul-17 16:10 33.671587 -117.867678 207 60ft 0kts
04-Jul-17 16:11 33.671587 -117.867678 207 60ft 0kts
04-Jul-17 16:12 33.671587 -117.867678 207 60ft 0kts
04-Jul-17 16:13 33.671587 -117.867678 207 60ft 0kts
04-Jul-17 16:14 33.671587 -117.867678 207 60ft 0kts
04-Jul-17 16:15 33.671587 -117.867678 207 60ft 0kts
04-Jul-17 16:16 33.671336 -117.868096 283 60ft 8kts
04-Jul-17 16:17 33.673262 -117.867700 22 60ft 12kts
04-Jul-17 16:18 33.675842 -117.866001 26 60ft 10kts
04-Jul-17 16:19 33.679123 -117.863916 24 60ft 13kts
04-Jul-17 16:20 33.679932 -117.863615 311 60ft 0kts
04-Jul-17 16:21 33.679932 -117.863615 311 60ft 0kts
04-Jul-17 16:22 33.677268 -117.866082 211 101ft 62kts
04-Jul-17 16:23 33.664326 -117.885522 237 969ft 89kts
04-Jul-17 16:24 33.648056 -117.911208 241 1647ft 101kts
04-Jul-17 16:25 33.662420 -117.933519 331 2291ft 101kts
04-Jul-17 16:26 33.683965 -117.952639 316 2773ft 87kts
04-Jul-17 16:27 33.700789 -117.969583 314 3244ft 72kts
04-Jul-17 16:28 33.714423 -117.983440 308 3721ft 62kts
04-Jul-17 16:29 33.734871 -118.004295 315 3728ft 106kts
04-Jul-17 16:30 33.755668 -118.025598 313 3910ft 94kts
04-Jul-17 16:31 33.776447 -118.047215 314 3940ft 104kts
04-Jul-17 16:32 33.788728 -118.076563 282 3957ft 100kts
04-Jul-17 16:33 33.797020 -118.108292 281 3957ft 101kts
04-Jul-17 16:34 33.805337 -118.140830 281 3957ft 100kts
04-Jul-17 16:35 33.813390 -118.172483 281 3959ft 98kts
04-Jul-17 16:36 33.821289 -118.203603 282 3962ft 96kts
04-Jul-17 16:37 33.829051 -118.234221 282 3966ft 95kts
04-Jul-17 16:38 33.836675 -118.264315 283 3968ft 93kts
04-Jul-17 16:39 33.844397 -118.288453 314 3972ft 97kts
04-Jul-17 16:40 33.867904 -118.313303 314 3976ft 97kts
04-Jul-17 16:41 33.885152 -118.330705 314 3980ft 97kts
04-Jul-17 16:42 33.906037 -118.351686 314 3982ft 98kts
04-Jul-17 16:43 33.927206 -118.372950 314 3984ft 100kts
04-Jul-17 16:44 33.948713 -118.394566 314 3981ft 102kts
04-Jul-17 16:45 33.970538 -118.416524 314 3980ft 103kts
04-Jul-17 16:46 33.992711 -118.438849 314 3979ft 104kts
04-Jul-17 16:47 34.015537 -118.460692 321 3978ft 106kts
04-Jul-17 16:48 34.040044 -118.480642 321 3978ft 106kts
04-Jul-17 16:49 34.067196 -118.498467 334 3820ft 115kts
04-Jul-17 16:50 34.097066 -118.509212 343 3828ft 108kts
04-Jul-17 16:51 34.112862 -118.532331 297 3976ft 99kts
04-Jul-17 16:52 34.136300 -118.540407 49 3963ft 113kts
04-Jul-17 16:53 34.156630 -118.512204 50 3965ft 112kts
04-Jul-17 16:54 34.178936 -118.484248 44 3555ft 139kts
04-Jul-17 16:55 34.203968 -118.455538 52 3342ft 124kts
04-Jul-17 16:56 34.226127 -118.422201 52 2507ft 123kts
04-Jul-17 16:57 34.234705 -118.388619 89 1793ft 90kts
04-Jul-17 16:58 34.227016 -118.364824 160 1336ft 76kts
04-Jul-17 16:59 34.210061 -118.359825 168 753ft 49kts
04-Jul-17 17:00 34.203320 -118.357984 194 734ft 5kts
04-Jul-17 17:01 34.202869 -118.358797 243 734ft 0kts
04-Jul-17 17:02 34.202833 -118.358901 259 734ft 1kts
04-Jul-17 17:03 34.202556 -118.359784 228 734ft 0kts

Navigation Log

Ident Type
Flight plan parsing failed, navigation log unavailable